Time;durP1;ratioP1;P1;durP2;ratioP2;P2;SDS_P1;SDS_P2;PMS_P1;PMS_P2;Temp;Humidity;BMP_temperature;BMP_pressure;BME280_temperature;BME280_humidity;BME280_pressure;Samples;Min_cycle;Max_cycle;Signal;HPM_P1;HPM_P2
2021/12/21 00:01:27;;;;;;;7.85;3.30;;;;;;;-2.29;84.35;97571.16;1749033;81;21439;-82
2021/12/21 00:03:53;;;;;;;6.65;3.67;;;;;;;-2.33;84.33;97568.52;1769522;81;21013;-82
2021/12/21 00:06:20;;;;;;;5.42;2.50;;;;;;;-2.34;84.42;97578.42;1769404;81;21022;-82
2021/12/21 00:08:46;;;;;;;5.05;2.45;;;;;;;-2.35;84.36;97574.09;1769273;80;21006;-82
2021/12/21 00:11:14;;;;;;;5.37;3.22;;;;;;;-2.35;83.78;97586.65;1762571;81;21029;-82
2021/12/21 00:13:57;;;;;;;5.58;2.72;;;;;;;-2.33;84.10;97587.53;1739061;82;21017;-82
2021/12/21 00:16:42;;;;;;;5.10;2.98;;;;;;;-2.32;83.11;97585.82;1736431;82;21037;-82
2021/12/21 00:24:01;;;;;;;;;;;;;;;-2.28;82.73;97598.86;1772169;81;21466;-83
2021/12/21 00:26:25;;;;;;;4.25;2.60;;;;;;;-2.26;82.45;97598.47;1768825;81;20094;-82
2021/12/21 00:31:19;;;;;;;4.58;2.72;;;;;;;-2.26;82.07;97610.56;1742289;81;20997;-82
2021/12/21 00:33:48;;;;;;;4.53;3.00;;;;;;;-2.26;82.14;97620.54;1739261;82;21044;-82
2021/12/21 00:36:18;;;;;;;4.65;2.50;;;;;;;-2.29;80.69;97626.97;1739080;82;21424;-82
2021/12/21 00:38:46;;;;;;;4.12;2.22;;;;;;;-2.25;81.65;97631.78;1760740;81;20978;-82
2021/12/21 00:41:14;;;;;;;5.92;2.75;;;;;;;-2.26;81.54;97630.92;1768547;81;21039;-82
2021/12/21 00:43:41;;;;;;;3.98;2.15;;;;;;;-2.24;81.96;97630.95;1769350;81;21096;-81
2021/12/21 00:46:08;;;;;;;3.00;2.20;;;;;;;-2.21;81.75;97635.31;1769544;81;21014;-82
2021/12/21 00:48:36;;;;;;;3.92;1.98;;;;;;;-2.17;81.58;97638.38;1769365;80;21025;-81
2021/12/21 00:51:07;;;;;;;3.87;1.90;;;;;;;-2.21;78.90;97630.98;1746076;81;20969;-82
2021/12/21 00:53:36;;;;;;;3.22;1.90;;;;;;;-2.21;79.81;97635.31;1739008;82;21391;-82
2021/12/21 00:56:04;;;;;;;6.28;2.00;;;;;;;-2.20;79.82;97643.10;1754814;81;20950;-82
2021/12/21 00:58:30;;;;;;;5.20;2.10;;;;;;;-2.19;80.07;97639.69;1769502;81;21139;-83
2021/12/21 01:01:01;;;;;;;4.58;1.90;;;;;;;-2.17;79.56;97640.56;1747827;81;21442;-82
2021/12/21 01:03:26;;;;;;;3.45;1.67;;;;;;;-2.14;79.00;97642.34;1738687;81;21009;-82
2021/12/21 01:06:05;;;;;;;3.25;1.95;;;;;;;-2.16;79.19;97640.16;1739068;82;21033;-82
2021/12/21 01:08:26;;;;;;;3.72;1.87;;;;;;;-2.13;78.87;97638.88;1736492;81;21053;-82
2021/12/21 01:13:45;;;;;;;3.40;2.00;;;;;;;-2.12;78.99;97635.43;1769174;80;21423;-82
2021/12/21 01:16:21;;;;;;;4.95;2.42;;;;;;;-2.07;78.37;97645.91;1754097;81;20982;-83
2021/12/21 01:19:10;;;;;;;3.37;2.10;;;;;;;-2.11;78.24;97652.78;1739328;82;21034;-82
2021/12/21 01:21:16;;;;;;;4.62;2.00;;;;;;;-2.14;76.57;97661.81;1759828;81;20990;-82
2021/12/21 01:26:27;;;;;;;2.92;2.10;;;;;;;-2.18;76.97;97662.19;1769511;80;20997;-82
2021/12/21 01:28:54;;;;;;;4.08;2.02;;;;;;;-2.17;77.51;97663.94;1767742;81;20995;-83
2021/12/21 01:36:57;;;;;;;3.98;2.50;;;;;;;-2.18;77.45;97684.67;1739036;82;21506;-83
2021/12/21 01:42:10;;;;;;;3.60;2.10;;;;;;;-2.24;76.45;97674.20;1739141;82;20989;-83
2021/12/21 01:50:00;;;;;;;3.77;2.42;;;;;;;-2.34;75.53;97699.11;1748312;81;21001;-82
2021/12/21 01:52:28;;;;;;;5.60;2.35;;;;;;;-2.40;75.31;97699.91;1780356;80;20980;-82
2021/12/21 01:54:55;;;;;;;4.62;2.45;;;;;;;-2.43;74.74;97712.81;1780538;80;20993;-82
2021/12/21 01:57:23;;;;;;;4.15;2.02;;;;;;;-2.42;75.35;97707.66;1780395;80;21064;-82
2021/12/21 01:59:51;;;;;;;3.75;2.30;;;;;;;-2.45;75.23;97720.56;1775098;80;21100;-82
2021/12/21 02:02:20;;;;;;;5.45;2.50;;;;;;;-2.52;75.28;97716.98;1749635;82;21028;-82
2021/12/21 02:04:47;;;;;;;4.50;2.62;;;;;;;-2.53;74.92;97715.69;1749644;82;21067;-82
2021/12/21 02:07:15;;;;;;;5.05;2.52;;;;;;;-2.54;74.98;97710.02;1749443;81;21058;-82
2021/12/21 02:09:41;;;;;;;6.87;3.10;;;;;;;-2.56;75.32;97713.02;1752873;81;21047;-82
2021/12/21 02:12:15;;;;;;;5.85;3.27;;;;;;;-2.57;75.48;97719.92;1780854;80;21023;-82
2021/12/21 02:14:44;;;;;;;4.95;2.62;;;;;;;-2.63;75.15;97717.22;1780756;80;21005;-82
2021/12/21 02:17:23;;;;;;;4.15;3.05;;;;;;;-2.61;75.50;97722.03;1780566;81;21403;-82
2021/12/21 02:22:42;;;;;;;6.05;3.72;;;;;;;-2.57;76.16;97716.47;1749689;80;21020;-82
2021/12/21 02:25:33;;;;;;;6.10;3.40;;;;;;;-2.54;76.17;97722.99;1773573;80;21067;-82
2021/12/21 02:27:54;;;;;;;4.10;2.62;;;;;;;-2.55;76.14;97731.22;1777352;80;20986;-82
2021/12/21 02:30:15;;;;;;;4.58;3.02;;;;;;;-2.54;75.94;97722.99;1771791;79;21048;-82
2021/12/21 02:32:42;;;;;;;4.25;2.47;;;;;;;-2.55;75.03;97722.14;1750113;82;20949;-82
2021/12/21 02:35:09;;;;;;;3.90;2.60;;;;;;;-2.60;74.48;97726.78;1749969;81;21075;-82
2021/12/21 02:37:35;;;;;;;7.03;3.00;;;;;;;-2.70;74.50;97738.28;1759725;80;20926;-82
2021/12/21 02:40:03;;;;;;;3.62;2.37;;;;;;;-2.74;74.46;97736.91;1753327;81;21044;-82
2021/12/21 02:42:29;;;;;;;5.10;2.20;;;;;;;-2.87;73.29;97744.44;1769956;80;22273;-82
2021/12/21 02:44:57;;;;;;;3.58;2.42;;;;;;;-2.95;72.84;97740.39;1780897;80;21048;-82
2021/12/21 02:47:24;;;;;;;4.45;2.40;;;;;;;-3.01;73.26;97757.55;1780779;80;21084;-82
2021/12/21 02:49:51;;;;;;;4.72;2.60;;;;;;;-3.09;70.50;97765.16;1770618;80;20962;-82
2021/12/21 02:52:17;;;;;;;4.37;2.62;;;;;;;-3.12;71.82;97767.27;1769504;81;21013;-82
2021/12/21 02:54:44;;;;;;;4.72;2.67;;;;;;;-3.22;69.65;97771.41;1769643;80;21021;-82
2021/12/21 02:57:10;;;;;;;3.50;2.37;;;;;;;-3.29;68.91;97773.39;1769487;81;21458;-83
2021/12/21 02:59:37;;;;;;;4.00;2.27;;;;;;;-3.41;68.97;97784.80;1749566;81;20990;-82
2021/12/21 03:02:04;;;;;;;4.15;2.08;;;;;;;-3.41;70.34;97785.65;1739239;82;21001;-82
2021/12/21 03:04:31;;;;;;;4.92;1.87;;;;;;;-3.49;68.36;97794.55;1739276;82;21010;-83
2021/12/21 03:09:54;;;;;;;3.67;2.00;;;;;;;-3.59;67.47;97807.72;1759672;81;20950;-81
2021/12/21 03:14:43;;;;;;;3.37;1.90;;;;;;;-3.71;67.46;97827.72;1769404;81;20998;-82
2021/12/21 03:17:10;;;;;;;2.87;1.40;;;;;;;-3.78;67.60;97826.24;1769651;81;21080;-81
2021/12/21 03:19:38;;;;;;;1.85;0.98;;;;;;;-3.86;66.29;97835.12;1750830;81;21036;-81
2021/12/21 03:22:06;;;;;;;3.58;1.10;;;;;;;-3.98;64.93;97824.89;1739075;82;21029;-81
2021/12/21 03:24:34;;;;;;;2.35;1.30;;;;;;;-4.15;61.29;97827.04;1738793;82;20993;-81
2021/12/21 03:27:01;;;;;;;1.32;0.90;;;;;;;-4.27;62.52;97840.53;1738938;82;20962;-81
2021/12/21 03:29:28;;;;;;;2.40;1.15;;;;;;;-4.51;60.86;97844.22;1755303;81;21053;-82
2021/12/21 03:31:55;;;;;;;1.80;0.85;;;;;;;-4.58;61.06;97859.50;1763120;81;21052;-82
2021/12/21 03:34:23;;;;;;;2.25;1.00;;;;;;;-4.72;61.37;97860.41;1742487;81;20982;-82
2021/12/21 03:36:50;;;;;;;1.65;0.98;;;;;;;-4.79;62.82;97865.41;1741579;81;21088;-82
2021/12/21 03:39:19;;;;;;;2.87;1.25;;;;;;;-4.90;60.85;97875.42;1767231;81;20989;-82
2021/12/21 03:41:50;;;;;;;1.55;0.70;;;;;;;-4.99;60.75;97889.80;1767572;81;21014;-81
2021/12/21 03:44:19;;;;;;;1.87;1.00;;;;;;;-5.15;57.67;97892.31;1769350;80;21047;-82
2021/12/21 03:46:49;;;;;;;2.12;1.22;;;;;;;-5.22;59.63;97901.58;1764160;81;21041;-82
2021/12/21 03:52:10;;;;;;;2.25;0.98;;;;;;;-5.39;57.83;97907.49;1738953;82;21502;-81
2021/12/21 03:54:39;;;;;;;2.42;0.80;;;;;;;-5.37;59.13;97910.98;1738587;81;21455;-82
2021/12/21 03:57:06;;;;;;;2.52;1.10;;;;;;;-5.44;59.39;97905.63;1745680;81;21025;-81
2021/12/21 03:59:32;;;;;;;1.95;1.00;;;;;;;-5.44;61.02;97923.71;1769416;80;21427;-82
2021/12/21 04:01:59;;;;;;;2.60;0.90;;;;;;;-5.45;62.00;97928.42;1769657;80;21017;-82
2021/12/21 04:04:26;;;;;;;2.17;1.02;;;;;;;-5.45;60.46;97936.57;1769438;81;21033;-82
2021/12/21 04:06:53;;;;;;;1.45;0.68;;;;;;;-5.48;60.01;97935.20;1765813;80;21045;-81
2021/12/21 04:09:20;;;;;;;1.80;0.90;;;;;;;-5.54;58.75;97923.34;1739040;82;21021;-81
2021/12/21 04:11:47;;;;;;;2.05;1.10;;;;;;;-5.56;59.74;97928.48;1739045;82;21423;-81
2021/12/21 04:14:14;;;;;;;2.22;0.85;;;;;;;-5.62;58.83;97929.16;1739032;82;21431;-82
2021/12/21 04:16:40;;;;;;;3.08;0.82;;;;;;;-5.65;57.63;97923.02;1739676;81;20989;-81
2021/12/21 04:19:07;;;;;;;2.08;1.15;;;;;;;-5.68;58.09;97923.79;1769584;81;20993;-81
2021/12/21 04:21:33;;;;;;;2.25;0.82;;;;;;;-5.68;59.58;97936.70;1769644;80;21061;-81
2021/12/21 04:24:00;;;;;;;2.45;1.10;;;;;;;-5.68;60.90;97931.53;1769513;81;21029;-82
2021/12/21 04:26:26;;;;;;;2.92;1.22;;;;;;;-5.68;60.26;97932.83;1769182;81;21021;-82
2021/12/21 04:28:53;;;;;;;2.55;1.35;;;;;;;-5.72;58.21;97933.55;1741717;81;20977;-82
2021/12/21 04:31:19;;;;;;;1.27;0.80;;;;;;;-5.80;57.04;97927.23;1739060;82;21040;-81
2021/12/21 04:33:46;;;;;;;1.77;0.93;;;;;;;-5.80;59.78;97933.69;1738967;82;21091;-82
2021/12/21 04:36:14;;;;;;;2.00;1.07;;;;;;;-5.81;60.30;97930.64;1739083;82;21033;-82
2021/12/21 04:38:45;;;;;;;2.17;1.10;;;;;;;-5.84;59.52;97937.47;1747081;81;20997;-82
2021/12/21 04:41:22;;;;;;;1.62;1.00;;;;;;;-5.88;58.77;97943.34;1746903;82;21020;-81
2021/12/21 04:43:44;;;;;;;1.92;1.00;;;;;;;-5.88;59.42;97947.62;1717779;83;20998;-82
2021/12/21 04:46:11;;;;;;;1.55;1.02;;;;;;;-5.92;59.09;97958.25;1755057;81;20978;-81
2021/12/21 04:48:38;;;;;;;2.47;1.32;;;;;;;-5.96;59.37;97965.41;1739248;82;20973;-81
2021/12/21 04:51:06;;;;;;;3.08;1.17;;;;;;;-6.04;58.36;97962.59;1734127;82;21044;-81
2021/12/21 04:53:33;;;;;;;2.12;0.90;;;;;;;-6.06;58.95;97964.26;1734836;81;20970;-81
2021/12/21 04:56:02;;;;;;;2.00;1.02;;;;;;;-6.08;60.26;97969.76;1734008;82;21024;-82
2021/12/21 04:58:30;;;;;;;3.37;1.75;;;;;;;-6.07;60.27;97979.68;1734148;83;21027;-82
2021/12/21 05:00:57;;;;;;;3.17;1.40;;;;;;;-6.10;61.10;97970.12;1734240;82;21037;-82
2021/12/21 05:03:24;;;;;;;4.28;1.30;;;;;;;-6.15;59.90;97976.83;1734135;81;21030;-82
2021/12/21 05:05:53;;;;;;;2.45;1.10;;;;;;;-6.15;60.69;97981.55;1763964;81;21002;-82
2021/12/21 05:08:23;;;;;;;2.62;0.93;;;;;;;-6.12;61.38;97985.55;1763943;81;21044;-82
2021/12/21 05:10:56;;;;;;;2.72;1.35;;;;;;;-6.16;60.14;97994.39;1764091;81;20998;-81
2021/12/21 05:13:21;;;;;;;4.72;1.85;;;;;;;-6.12;61.01;97992.39;1762558;81;21018;-82
2021/12/21 05:15:48;;;;;;;3.45;1.32;;;;;;;-6.14;61.63;97994.05;1763339;81;21480;-82
2021/12/21 05:18:16;;;;;;;2.98;1.50;;;;;;;-6.20;60.51;98003.73;1764268;81;21029;-82
2021/12/21 05:20:44;;;;;;;5.62;1.32;;;;;;;-6.21;61.28;98005.84;1764363;81;21024;-82
2021/12/21 05:23:11;;;;;;;4.78;1.95;;;;;;;-6.24;62.04;98013.45;1764289;81;21018;-81
2021/12/21 05:25:40;;;;;;;3.98;1.85;;;;;;;-6.27;62.64;98019.81;1737459;81;21084;-81
2021/12/21 05:28:09;;;;;;;4.47;1.77;;;;;;;-6.31;62.28;98010.20;1734154;82;21056;-81
2021/12/21 05:30:37;;;;;;;4.17;2.12;;;;;;;-6.32;62.07;98023.92;1733989;83;21085;-81
2021/12/21 05:33:04;;;;;;;3.83;1.77;;;;;;;-6.38;62.78;98021.98;1734115;83;21036;-81
2021/12/21 05:35:33;;;;;;;3.67;1.72;;;;;;;-6.43;62.60;98036.00;1759187;81;21031;-81
2021/12/21 05:38:04;;;;;;;3.25;1.75;;;;;;;-6.43;63.08;98026.97;1764247;81;21069;-81
2021/12/21 05:40:34;;;;;;;7.00;3.00;;;;;;;-6.44;63.41;98041.09;1764203;81;21633;-81
2021/12/21 05:43:01;;;;;;;4.28;2.50;;;;;;;-6.45;63.43;98044.06;1764135;80;21089;-81
2021/12/21 05:45:28;;;;;;;6.90;2.20;;;;;;;-6.45;64.34;98047.94;1738751;81;21021;-81
2021/12/21 05:47:54;;;;;;;7.28;2.35;;;;;;;-6.45;64.01;98048.37;1734043;82;21072;-81
2021/12/21 05:50:21;;;;;;;2.72;1.67;;;;;;;-6.51;63.67;98061.89;1734035;83;21021;-81
2021/12/21 05:52:49;;;;;;;2.85;1.27;;;;;;;-6.57;63.26;98059.94;1733890;83;21081;-81
2021/12/21 05:55:18;;;;;;;3.10;1.55;;;;;;;-6.59;62.83;98058.12;1714314;82;21017;-80
2021/12/21 05:57:46;;;;;;;3.62;1.77;;;;;;;-6.61;64.01;98064.50;1733658;83;21048;-81
2021/12/21 06:00:17;;;;;;;6.70;2.02;;;;;;;-6.59;63.95;98072.30;1733717;83;21010;-83
2021/12/21 06:02:44;;;;;;;3.22;1.62;;;;;;;-6.59;64.12;98074.48;1734683;81;20982;-81
2021/12/21 06:05:10;;;;;;;4.20;2.30;;;;;;;-6.61;63.50;98082.55;1733652;82;21033;-82
2021/12/21 06:07:36;;;;;;;3.10;1.70;;;;;;;-6.63;64.14;98083.80;1733933;83;21052;-82
2021/12/21 06:10:18;;;;;;;3.22;1.62;;;;;;;-6.63;64.96;98088.95;1734180;82;20997;-82
2021/12/21 06:13:11;;;;;;;2.85;1.57;;;;;;;-6.64;64.86;98089.75;1740645;81;21006;-82
2021/12/21 06:15:22;;;;;;;2.72;1.62;;;;;;;-6.64;64.30;98093.61;1760678;81;20997;-81
2021/12/21 06:26:00;;;;;;;3.58;1.57;;;;;;;-6.69;63.87;98109.30;1756980;81;22205;-81
2021/12/21 06:28:26;;;;;;;2.22;1.02;;;;;;;-6.69;63.94;98111.88;1734140;80;21493;-81
2021/12/21 06:30:53;;;;;;;2.80;1.60;;;;;;;-6.73;63.52;98115.14;1738225;81;21395;-81
2021/12/21 06:33:20;;;;;;;3.08;1.57;;;;;;;-6.72;63.26;98121.20;1691991;84;21069;-78
2021/12/21 06:35:47;;;;;;;5.10;2.15;;;;;;;-6.64;68.43;98120.68;1700572;84;21453;-78
2021/12/21 06:38:14;;;;;;;3.62;2.15;;;;;;;-6.56;65.58;98121.42;1700708;84;21003;-78
2021/12/21 06:40:41;;;;;;;3.25;2.00;;;;;;;-6.51;65.76;98132.36;1749329;82;21060;-78
2021/12/21 06:43:12;;;;;;;4.95;1.70;;;;;;;-6.44;64.87;98129.62;1756179;81;20985;-78
2021/12/21 06:53:39;;;;;;;;;;;;;;;-6.40;63.54;98153.87;1783465;81;20970;-81
2021/12/21 06:56:08;;;;;;;5.45;2.45;;;;;;;-6.52;63.31;98150.38;1780720;81;20088;-81
2021/12/21 06:58:34;;;;;;;2.40;1.60;;;;;;;-6.55;63.52;98157.98;1769111;80;21412;-82
2021/12/21 07:01:04;;;;;;;4.92;2.08;;;;;;;-6.58;63.72;98160.02;1749661;82;21103;-81
2021/12/21 07:03:30;;;;;;;3.02;1.65;;;;;;;-6.60;63.93;98164.64;1749639;81;21051;-82
2021/12/21 07:06:03;;;;;;;5.15;1.80;;;;;;;-6.63;63.75;98173.13;1749762;82;21036;-83
2021/12/21 07:08:35;;;;;;;4.03;2.17;;;;;;;-6.69;63.80;98163.87;1750093;82;21450;-82
2021/12/21 07:11:17;;;;;;;6.08;2.37;;;;;;;-6.65;64.55;98164.04;1750000;82;21107;-83
2021/12/21 07:19:07;;;;;;;4.12;1.90;;;;;;;-6.54;64.62;98167.47;1781130;80;21012;-83
2021/12/21 07:21:34;;;;;;;4.40;1.75;;;;;;;-6.49;64.53;98167.25;1780881;80;20997;-83
2021/12/21 07:24:00;;;;;;;4.80;1.87;;;;;;;-6.53;63.66;98171.41;1780432;80;21462;-81
2021/12/21 07:26:27;;;;;;;5.80;2.33;;;;;;;-6.51;64.27;98157.30;1775854;80;21040;-83
2021/12/21 07:28:54;;;;;;;6.25;2.30;;;;;;;-6.46;64.31;98166.48;1750017;81;20997;-83
2021/12/21 07:31:20;;;;;;;6.60;3.00;;;;;;;-6.43;64.34;98175.66;1750150;82;21032;-83
2021/12/21 07:33:47;;;;;;;4.92;2.75;;;;;;;-6.43;63.99;98180.41;1750237;82;20981;-83
2021/12/21 07:36:13;;;;;;;4.80;2.25;;;;;;;-6.40;64.21;98174.50;1751381;81;21051;-81
2021/12/21 07:38:40;;;;;;;4.85;2.45;;;;;;;-6.32;64.48;98166.64;1780453;80;21004;-82
2021/12/21 07:41:06;;;;;;;5.33;2.22;;;;;;;-6.24;64.88;98160.49;1781036;80;21040;-80
2021/12/21 07:43:33;;;;;;;2.75;1.75;;;;;;;-6.22;63.71;98160.16;1809594;79;20960;-81
2021/12/21 07:46:00;;;;;;;4.60;2.67;;;;;;;-6.24;63.59;98155.34;1715998;82;20993;-81
2021/12/21 07:48:27;;;;;;;5.40;2.62;;;;;;;-6.21;64.07;98155.47;1686520;84;21035;-82
2021/12/21 07:50:55;;;;;;;4.15;2.30;;;;;;;-6.19;63.69;98165.42;1694254;82;21002;-81
2021/12/21 07:53:22;;;;;;;4.28;2.42;;;;;;;-6.15;63.53;98152.27;1791353;79;20992;-80
2021/12/21 07:55:49;;;;;;;5.47;2.42;;;;;;;-6.10;63.81;98155.91;1773812;80;21489;-82
2021/12/21 07:58:16;;;;;;;9.88;3.37;;;;;;;-6.06;63.49;98160.77;1714297;83;21017;-83
2021/12/21 08:00:43;;;;;;;7.70;3.17;;;;;;;-5.97;63.85;98148.19;1698939;82;21440;-81
2021/12/21 08:03:14;;;;;;;6.97;3.08;;;;;;;-5.89;63.38;98161.38;1707756;82;21414;-80
2021/12/21 08:05:39;;;;;;;8.88;3.02;;;;;;;-5.85;63.31;98164.56;1776678;79;21037;-81
2021/12/21 08:08:12;;;;;;;7.97;2.92;;;;;;;-5.76;64.07;98162.73;1727618;83;21455;-80
2021/12/21 08:10:47;;;;;;;8.00;3.12;;;;;;;-5.71;62.99;98159.91;1712438;84;21012;-81
2021/12/21 08:13:13;;;;;;;5.17;2.62;;;;;;;-5.65;62.61;98165.73;1712442;83;21024;-78
2021/12/21 08:15:40;;;;;;;9.33;3.55;;;;;;;-5.58;62.74;98175.05;1699853;83;21415;-77
2021/12/21 08:18:07;;;;;;;6.42;3.15;;;;;;;-5.54;62.35;98186.36;1684101;85;21038;-77
2021/12/21 08:20:35;;;;;;;6.62;2.98;;;;;;;-5.59;61.38;98186.61;1729043;82;20982;-79
2021/12/21 08:23:03;;;;;;;6.03;3.30;;;;;;;-5.54;62.04;98191.53;1739274;82;21057;-78
2021/12/21 08:25:29;;;;;;;8.18;4.17;;;;;;;-5.53;61.63;98210.07;1749701;81;21032;-79
2021/12/21 08:27:58;;;;;;;8.65;4.10;;;;;;;-5.49;62.17;98202.91;1760706;81;20985;-78
2021/12/21 08:30:26;;;;;;;7.60;3.90;;;;;;;-5.52;61.71;98206.66;1779194;80;21004;-80
2021/12/21 08:32:53;;;;;;;7.67;3.05;;;;;;;-5.50;61.81;98216.66;1797235;80;21369;-79
2021/12/21 08:35:21;;;;;;;6.78;3.67;;;;;;;-5.40;62.54;98229.48;1756544;81;20957;-79
2021/12/21 08:37:51;;;;;;;7.67;3.25;;;;;;;-5.34;61.91;98236.60;1755336;81;21045;-80
2021/12/21 08:40:17;;;;;;;5.53;3.25;;;;;;;-5.27;62.35;98238.61;1752161;81;21442;-81
2021/12/21 08:42:46;;;;;;;5.20;3.27;;;;;;;-5.24;61.43;98239.13;1743270;80;20982;-83
2021/12/21 08:45:12;;;;;;;4.58;2.50;;;;;;;-5.19;61.97;98244.92;1739603;82;21021;-83
2021/12/21 08:47:38;;;;;;;5.20;2.92;;;;;;;-5.16;60.51;98246.73;1750744;81;21411;-84
2021/12/21 08:50:09;;;;;;;8.78;3.20;;;;;;;-5.10;60.00;98243.51;1768466;81;21061;-82
2021/12/21 08:52:36;;;;;;;6.25;3.17;;;;;;;-5.02;60.14;98248.55;1764640;81;21442;-83
2021/12/21 08:55:07;;;;;;;5.80;3.22;;;;;;;-4.95;60.26;98244.46;1763918;81;21414;-84
2021/12/21 08:57:36;;;;;;;5.37;2.70;;;;;;;-4.90;59.47;98237.34;1764552;81;21021;-80
2021/12/21 09:00:07;;;;;;;5.28;2.40;;;;;;;-4.80;59.93;98235.09;1757697;81;20985;-81
2021/12/21 09:02:36;;;;;;;4.60;2.42;;;;;;;-4.78;56.41;98230.44;1761824;81;21008;-85
2021/12/21 09:05:14;;;;;;;3.55;1.95;;;;;;;-4.68;57.51;98225.59;1764482;81;21074;-83
2021/12/21 09:07:42;;;;;;;4.17;2.10;;;;;;;-4.59;57.48;98224.63;1737917;79;21004;-80
2021/12/21 09:10:19;;;;;;;5.58;2.22;;;;;;;-4.51;56.57;98219.31;1749727;81;21080;-79
2021/12/21 09:12:50;;;;;;;4.05;1.75;;;;;;;-4.42;58.44;98221.31;1751780;81;21365;-79
2021/12/21 09:15:22;;;;;;;4.87;1.92;;;;;;;-4.37;55.13;98222.35;1744299;81;20962;-80
2021/12/21 09:17:54;;;;;;;3.27;1.92;;;;;;;-4.30;55.49;98235.09;1751833;81;21001;-79
2021/12/21 09:23:06;;;;;;;3.92;1.90;;;;;;;-4.19;54.26;98225.06;1637402;82;21066;-77
2021/12/21 09:25:35;;;;;;;5.20;1.70;;;;;;;-4.18;53.01;98227.25;1744573;82;21021;-79
2021/12/21 09:28:02;;;;;;;4.00;1.70;;;;;;;-4.09;54.82;98230.15;1715226;82;21021;-77
2021/12/21 09:30:28;;;;;;;2.98;1.22;;;;;;;-4.00;53.09;98236.03;1765272;81;21073;-76
2021/12/21 09:32:58;;;;;;;1.50;1.00;;;;;;;-3.92;52.63;98227.20;1753234;81;20982;-76
2021/12/21 09:35:27;;;;;;;5.92;2.10;;;;;;;-3.79;51.63;98226.77;1750061;81;21080;-76
2021/12/21 09:37:56;;;;;;;3.45;1.32;;;;;;;-3.65;53.13;98219.86;1754663;81;20938;-75
2021/12/21 09:40:28;;;;;;;3.40;1.65;;;;;;;-3.54;50.07;98215.01;1749452;81;21062;-76
2021/12/21 09:42:57;;;;;;;4.15;1.57;;;;;;;-3.48;51.24;98214.75;1745863;81;20974;-75
2021/12/21 09:45:24;;;;;;;2.42;1.47;;;;;;;-3.42;50.50;98221.84;1693995;84;21059;-81
2021/12/21 09:47:50;;;;;;;3.70;2.00;;;;;;;-3.38;48.92;98224.09;1678254;84;21055;-76
2021/12/21 09:50:21;;;;;;;4.10;1.67;;;;;;;-3.20;52.24;98212.12;1692274;83;21393;-76
2021/12/21 09:52:48;;;;;;;4.60;1.65;;;;;;;-3.03;52.56;98210.41;1717244;83;21090;-76
2021/12/21 09:55:18;;;;;;;6.55;2.02;;;;;;;-2.90;53.69;98216.81;1713872;83;21014;-76
2021/12/21 09:57:47;;;;;;;2.60;1.37;;;;;;;-2.74;52.10;98215.09;1708822;82;21377;-75
2021/12/21 10:00:22;;;;;;;2.55;1.37;;;;;;;-2.61;52.95;98212.44;1719261;82;21501;-75
2021/12/21 10:02:48;;;;;;;4.12;1.40;;;;;;;-2.49;52.99;98210.98;1697678;82;21011;-76
2021/12/21 10:05:21;;;;;;;3.12;1.52;;;;;;;-2.39;50.24;98220.77;1695539;82;21054;-79
2021/12/21 10:08:02;;;;;;;3.27;1.77;;;;;;;-2.46;47.22;98209.78;1701092;82;21053;-79
2021/12/21 10:10:33;;;;;;;2.47;1.67;;;;;;;-2.40;50.78;98203.44;1697602;82;20991;-79
2021/12/21 10:13:14;;;;;;;3.42;1.55;;;;;;;-2.36;46.29;98207.88;1725155;82;21033;-79
2021/12/21 10:15:45;;;;;;;3.40;1.35;;;;;;;-2.30;47.77;98203.23;1701934;83;20996;-80
2021/12/21 10:18:13;;;;;;;3.47;1.65;;;;;;;-2.28;49.05;98198.55;1690836;84;21103;-80
2021/12/21 10:20:44;;;;;;;3.85;1.65;;;;;;;-2.22;49.10;98193.05;1701439;84;21082;-80
2021/12/21 10:23:30;;;;;;;2.67;1.30;;;;;;;-2.24;45.68;98193.03;1701406;84;20972;-80
2021/12/21 10:26:10;;;;;;;4.80;1.55;;;;;;;-2.19;46.93;98197.02;1715037;83;20969;-79
2021/12/21 10:28:45;;;;;;;2.35;1.42;;;;;;;-2.26;44.94;98189.09;1706081;84;21036;-79
2021/12/21 10:31:36;;;;;;;3.37;1.50;;;;;;;-2.35;43.85;98188.86;1706375;84;20969;-79
2021/12/21 10:34:01;;;;;;;2.55;1.50;;;;;;;-2.32;44.42;98183.72;1717545;83;20994;-80
2021/12/21 10:36:29;;;;;;;1.57;1.20;;;;;;;-2.28;45.17;98182.97;1666355;84;20967;-79
2021/12/21 10:38:59;;;;;;;4.92;2.00;;;;;;;-2.19;45.82;98191.83;1713911;82;21049;-79
2021/12/21 10:41:41;;;;;;;3.40;1.62;;;;;;;-2.17;47.84;98196.63;1700841;83;21508;-80
2021/12/21 10:44:13;;;;;;;3.95;1.65;;;;;;;-2.13;47.29;98192.86;1713147;82;21002;-79
2021/12/21 10:46:43;;;;;;;2.08;1.30;;;;;;;-2.07;48.63;98183.47;1705570;83;20966;-79
2021/12/21 10:49:18;;;;;;;3.35;1.62;;;;;;;-2.03;47.30;98190.05;1756880;80;20982;-80
2021/12/21 10:52:05;;;;;;;2.83;2.05;;;;;;;-1.88;46.63;98183.46;1763184;80;21013;-79
2021/12/21 10:54:43;;;;;;;2.70;1.40;;;;;;;-1.83;45.84;98190.94;1770575;80;20988;-79
2021/12/21 10:57:17;;;;;;;3.35;1.30;;;;;;;-2.00;45.77;98193.14;1759622;80;21414;-79
2021/12/21 10:59:48;;;;;;;3.33;1.30;;;;;;;-1.94;46.63;98193.72;1773759;79;21002;-79
2021/12/21 11:02:25;;;;;;;2.25;1.15;;;;;;;-1.93;48.38;98188.56;1772940;80;21288;-79
2021/12/21 11:05:08;;;;;;;4.37;2.08;;;;;;;-1.94;45.37;98195.02;1765976;80;20994;-79
2021/12/21 11:08:22;;;;;;;3.47;1.85;;;;;;;-1.36;45.67;98193.28;1765503;80;21021;-80
2021/12/21 11:10:29;;;;;;;2.55;1.40;;;;;;;-0.55;46.18;98185.73;1756042;80;21065;-80
2021/12/21 11:13:00;;;;;;;4.28;1.32;;;;;;;-0.26;43.26;98190.57;1769979;80;20990;-79
2021/12/21 11:15:35;;;;;;;3.85;2.00;;;;;;;0.29;41.90;98182.31;1776449;80;20918;-80
2021/12/21 11:18:16;;;;;;;3.02;1.57;;;;;;;-0.12;42.63;98179.52;1766348;80;21012;-79
2021/12/21 11:20:48;;;;;;;3.87;1.92;;;;;;;-0.59;42.05;98189.12;1752651;81;21008;-80
2021/12/21 11:23:15;;;;;;;4.42;2.05;;;;;;;-0.78;43.79;98179.69;1772047;80;20990;-80
2021/12/21 11:25:46;;;;;;;4.78;1.60;;;;;;;-1.16;44.33;98182.41;1765251;80;20985;-80
2021/12/21 11:28:27;;;;;;;2.92;1.32;;;;;;;-1.32;45.59;98179.50;1787707;80;20985;-80
2021/12/21 11:31:01;;;;;;;3.22;1.80;;;;;;;-1.44;45.87;98182.72;1801267;80;20965;-80
2021/12/21 11:33:35;;;;;;;4.40;1.25;;;;;;;-1.45;46.47;98187.47;1781873;80;21450;-80
2021/12/21 11:38:45;;;;;;;2.33;1.30;;;;;;;-1.74;47.22;98192.89;1765210;80;21053;-80
2021/12/21 11:41:12;;;;;;;2.72;1.30;;;;;;;-1.74;48.64;98183.36;1785361;80;20990;-81
2021/12/21 11:43:49;;;;;;;2.92;1.42;;;;;;;-1.88;48.20;98186.06;1801081;80;21017;-79
2021/12/21 11:46:24;;;;;;;3.02;1.45;;;;;;;-1.86;48.63;98182.66;1801369;80;20994;-79
2021/12/21 11:49:14;;;;;;;4.12;1.32;;;;;;;-1.86;48.76;98177.45;1758198;81;20971;-80
2021/12/21 11:51:40;;;;;;;2.33;1.25;;;;;;;-1.91;48.41;98196.41;1763287;80;21033;-80
2021/12/21 11:54:20;;;;;;;3.30;1.40;;;;;;;-1.89;49.13;98187.80;1761582;80;21021;-80
2021/12/21 11:56:47;;;;;;;1.92;1.35;;;;;;;-1.91;48.97;98195.96;1767038;81;21037;-80
2021/12/21 11:59:21;;;;;;;4.28;1.67;;;;;;;-1.92;49.18;98202.41;1767160;81;20974;-80
2021/12/21 12:01:48;;;;;;;4.30;2.00;;;;;;;-1.89;49.86;98209.88;1742024;81;21013;-81
2021/12/21 12:04:16;;;;;;;4.62;1.77;;;;;;;-1.90;50.70;98204.64;1736748;82;21009;-80
2021/12/21 12:06:53;;;;;;;4.15;1.87;;;;;;;-1.74;51.19;98194.19;1736946;83;20986;-79
2021/12/21 12:09:32;;;;;;;5.42;2.40;;;;;;;-1.77;49.75;98204.09;1766114;80;21032;-79
2021/12/21 12:12:08;;;;;;;3.70;1.80;;;;;;;-1.79;50.57;98197.11;1769761;80;21005;-79
2021/12/21 12:14:37;;;;;;;4.22;2.30;;;;;;;-1.74;51.58;98197.66;1767188;81;21455;-81
2021/12/21 12:17:22;;;;;;;4.87;2.00;;;;;;;-1.66;51.94;98197.82;1767174;80;20989;-81
2021/12/21 12:20:01;;;;;;;3.13;1.73;;;;;;;-1.66;51.14;98190.02;1767482;80;20966;-81
2021/12/21 12:22:43;;;;;;;5.53;2.10;;;;;;;-1.77;50.70;98194.11;1766092;81;20982;-80
2021/12/21 12:25:26;;;;;;;2.98;1.55;;;;;;;-1.75;51.72;98190.70;1767322;81;21068;-80
2021/12/21 12:27:54;;;;;;;2.92;1.80;;;;;;;-1.82;50.30;98195.73;1767427;81;21001;-80
2021/12/21 12:30:24;;;;;;;2.87;1.70;;;;;;;-1.92;50.51;98210.20;1760039;81;21092;-80
2021/12/21 12:33:02;;;;;;;4.10;1.77;;;;;;;-2.02;50.69;98195.73;1742729;81;21044;-79
2021/12/21 12:35:33;;;;;;;3.33;1.72;;;;;;;-2.03;51.29;98196.55;1756512;80;20978;-80
2021/12/21 12:38:08;;;;;;;5.33;1.75;;;;;;;-2.03;51.73;98208.23;1761310;80;20993;-80
2021/12/21 12:40:42;;;;;;;3.98;2.17;;;;;;;-2.02;52.25;98206.12;1757605;81;21061;-80
2021/12/21 12:43:20;;;;;;;4.12;2.17;;;;;;;-2.02;52.45;98208.72;1735297;83;21092;-79
2021/12/21 12:46:04;;;;;;;4.90;2.20;;;;;;;-2.05;53.06;98208.63;1735321;83;21124;-79
2021/12/21 12:48:47;;;;;;;5.70;2.42;;;;;;;-1.96;53.13;98212.30;1723816;83;21005;-79
2021/12/21 12:51:30;;;;;;;5.17;2.08;;;;;;;-2.02;53.27;98213.91;1739011;82;21589;-79